createdAt,value
2018-01-13T00:00:57.180Z,0
2018-01-13T00:01:56.490Z,0
2018-01-13T00:02:56.294Z,0
2018-01-13T00:03:56.608Z,0
2018-01-13T00:04:57.042Z,0
2018-01-13T00:05:57.438Z,0
2018-01-13T00:06:57.505Z,0
2018-01-13T00:07:57.058Z,0
2018-01-13T00:08:56.792Z,0
2018-01-13T00:09:56.897Z,0
2018-01-13T00:10:57.353Z,0
2018-01-13T00:11:56.917Z,0
2018-01-13T00:12:56.614Z,0
2018-01-13T00:13:57.120Z,0
2018-01-13T00:14:57.949Z,0
2018-01-13T00:15:58.730Z,0
2018-01-13T00:16:57.751Z,0
2018-01-13T00:17:57.546Z,0
2018-01-13T00:18:57.065Z,0
2018-01-13T00:19:58.147Z,0
2018-01-13T00:20:57.577Z,0
2018-01-13T00:21:58.220Z,0
2018-01-13T00:22:57.444Z,0
2018-01-13T00:23:58.156Z,0
2018-01-13T00:24:57.821Z,0
2018-01-13T00:25:57.588Z,0
2018-01-13T00:26:58.132Z,0
2018-01-13T00:27:57.633Z,0
2018-01-13T00:28:58.568Z,0
2018-01-13T00:29:58.212Z,0
2018-01-13T00:30:58.273Z,0
2018-01-13T00:31:58.519Z,0
2018-01-13T00:32:58.638Z,0
2018-01-13T00:33:58.015Z,0
2018-01-13T00:34:58.344Z,0
2018-01-13T00:35:58.587Z,0
2018-01-13T00:36:58.953Z,0
2018-01-13T00:37:58.765Z,0
2018-01-13T00:38:59.284Z,0
2018-01-13T00:39:59.720Z,0
2018-01-13T00:40:59.138Z,0
2018-01-13T00:41:59.173Z,0
2018-01-13T00:42:59.110Z,0
2018-01-13T00:43:59.199Z,0
2018-01-13T00:44:59.686Z,0
2018-01-13T00:45:59.463Z,0
2018-01-13T00:46:59.670Z,0
2018-01-13T00:47:58.927Z,0
2018-01-13T00:48:59.594Z,0
2018-01-13T00:49:59.474Z,0
2018-01-13T00:51:00.148Z,0
2018-01-13T00:52:00.015Z,0
2018-01-13T00:53:00.213Z,0
2018-01-13T00:54:00.230Z,0
2018-01-13T00:55:00.019Z,0
2018-01-13T00:56:00.751Z,0
2018-01-13T00:57:00.822Z,0
2018-01-13T00:58:00.186Z,0
2018-01-13T00:59:00.987Z,0
2018-01-13T01:00:00.569Z,0
2018-01-13T01:01:00.629Z,0
2018-01-13T01:02:01.326Z,0
2018-01-13T01:03:01.228Z,0
2018-01-13T01:04:01.185Z,0
2018-01-13T01:05:01.701Z,0
2018-01-13T01:06:02.028Z,0
2018-01-13T01:07:01.503Z,0
2018-01-13T01:08:02.787Z,0
2018-01-13T01:09:01.817Z,0
2018-01-13T01:10:03.725Z,0
2018-01-13T01:11:02.185Z,0
2018-01-13T01:12:03.116Z,0
2018-01-13T01:13:02.376Z,0
2018-01-13T01:14:01.941Z,0
2018-01-13T01:15:01.697Z,0
2018-01-13T01:16:02.536Z,0
2018-01-13T01:17:02.108Z,0
2018-01-13T01:18:02.417Z,0
2018-01-13T01:19:02.381Z,0
2018-01-13T01:20:02.426Z,0
2018-01-13T01:21:02.278Z,0
2018-01-13T01:22:02.417Z,0
2018-01-13T01:23:02.066Z,0
2018-01-13T01:24:02.814Z,0
2018-01-13T01:25:02.504Z,0
2018-01-13T01:26:03.129Z,0
2018-01-13T01:27:03.229Z,0
2018-01-13T01:28:03.329Z,0
2018-01-13T01:29:03.222Z,0
2018-01-13T01:30:03.202Z,0
2018-01-13T01:31:03.084Z,0
2018-01-13T01:32:03.583Z,0
2018-01-13T01:33:02.452Z,0
2018-01-13T01:34:03.230Z,0
2018-01-13T01:35:03.150Z,0
2018-01-13T01:36:02.898Z,0
2018-01-13T01:37:03.699Z,0
2018-01-13T01:38:03.541Z,0
2018-01-13T01:39:03.231Z,0
2018-01-13T01:40:03.817Z,0
2018-01-13T01:41:03.569Z,0
2018-01-13T01:42:04.017Z,0
2018-01-13T01:43:05.140Z,0
2018-01-13T01:44:04.339Z,0
2018-01-13T01:45:04.533Z,0
2018-01-13T01:46:04.079Z,0
2018-01-13T01:47:04.350Z,0
2018-01-13T01:48:04.822Z,0
2018-01-13T01:49:04.840Z,0
2018-01-13T01:50:05.187Z,0
2018-01-13T01:51:05.638Z,0
2018-01-13T01:52:05.136Z,0
2018-01-13T01:53:04.913Z,0
2018-01-13T01:54:05.390Z,0
2018-01-13T01:55:05.204Z,0
2018-01-13T01:56:06.241Z,0
2018-01-13T01:57:06.068Z,0
2018-01-13T01:58:05.647Z,0
2018-01-13T01:59:06.308Z,0
2018-01-13T02:00:20.451Z,0
2018-01-13T02:01:05.899Z,0
2018-01-13T02:02:06.053Z,0
2018-01-13T02:03:06.566Z,0
2018-01-13T02:04:06.717Z,0
2018-01-13T02:05:07.939Z,0
2018-01-13T02:06:07.557Z,0
2018-01-13T02:07:07.705Z,0
2018-01-13T02:08:07.861Z,0
2018-01-13T02:09:08.307Z,0
2018-01-13T02:10:08.452Z,0
2018-01-13T02:11:08.549Z,0
2018-01-13T02:12:08.208Z,0
2018-01-13T02:13:08.893Z,0
2018-01-13T02:14:08.440Z,0
2018-01-13T02:15:08.506Z,0
2018-01-13T02:16:08.534Z,0
2018-01-13T02:17:10.226Z,0
2018-01-13T02:18:09.630Z,0
2018-01-13T02:19:09.564Z,0
2018-01-13T02:20:09.721Z,0
2018-01-13T02:21:09.700Z,0
2018-01-13T02:22:09.392Z,0
2018-01-13T02:23:10.246Z,0
2018-01-13T02:24:10.159Z,0
2018-01-13T02:25:10.026Z,0
2018-01-13T02:26:10.287Z,0
2018-01-13T02:27:10.354Z,0
2018-01-13T02:28:11.030Z,0
2018-01-13T02:29:11.035Z,0
2018-01-13T02:30:11.202Z,0
2018-01-13T02:31:11.448Z,0
2018-01-13T02:32:10.655Z,0
2018-01-13T02:33:10.946Z,0
2018-01-13T02:34:11.398Z,0
2018-01-13T02:35:11.679Z,0
2018-01-13T02:36:11.460Z,0
2018-01-13T02:37:11.550Z,0
2018-01-13T02:38:11.941Z,0
2018-01-13T02:39:12.061Z,0
2018-01-13T02:40:12.229Z,0
2018-01-13T02:41:12.361Z,0
2018-01-13T02:42:12.751Z,0
2018-01-13T02:43:13.162Z,0
2018-01-13T02:44:13.581Z,0
2018-01-13T02:45:13.577Z,0
2018-01-13T02:46:13.306Z,0
2018-01-13T02:47:13.464Z,0
2018-01-13T02:48:13.537Z,0
2018-01-13T02:49:13.295Z,0
2018-01-13T02:50:13.839Z,0
2018-01-13T02:51:13.996Z,0
2018-01-13T02:52:14.688Z,0
2018-01-13T02:53:14.652Z,0
2018-01-13T02:54:14.317Z,0
2018-01-13T02:55:14.545Z,0
2018-01-13T02:56:14.762Z,0
2018-01-13T02:57:14.986Z,0
2018-01-13T02:58:15.510Z,0
2018-01-13T02:59:15.108Z,0
2018-01-13T03:00:30.634Z,0
2018-01-13T03:01:15.125Z,0
2018-01-13T03:02:14.946Z,0
2018-01-13T03:03:15.420Z,0
2018-01-13T03:04:15.486Z,0
2018-01-13T03:05:15.748Z,0
2018-01-13T03:06:15.284Z,0
2018-01-13T03:07:15.128Z,0
2018-01-13T03:08:16.117Z,0
2018-01-13T03:09:16.405Z,0
2018-01-13T03:10:16.026Z,0
2018-01-13T03:11:16.152Z,0
2018-01-13T03:12:15.978Z,0
2018-01-13T03:13:15.366Z,0
2018-01-13T03:14:15.848Z,0
2018-01-13T03:15:15.541Z,0
2018-01-13T03:16:16.363Z,0
2018-01-13T03:17:15.989Z,0
2018-01-13T03:18:16.008Z,0
2018-01-13T03:19:15.853Z,0
2018-01-13T03:20:16.260Z,0
2018-01-13T03:21:16.267Z,0
2018-01-13T03:22:16.526Z,0
2018-01-13T03:23:16.666Z,0
2018-01-13T03:24:16.877Z,0
2018-01-13T03:25:16.644Z,0
2018-01-13T03:26:16.160Z,0
2018-01-13T03:27:17.017Z,0
2018-01-13T03:28:16.698Z,0
2018-01-13T03:29:16.460Z,0
2018-01-13T03:30:16.964Z,0
2018-01-13T03:31:16.586Z,0
2018-01-13T03:32:17.285Z,0
2018-01-13T03:33:17.557Z,0
2018-01-13T03:34:17.550Z,0
2018-01-13T03:35:17.284Z,0
2018-01-13T03:36:17.285Z,0
2018-01-13T03:37:18.170Z,0
2018-01-13T03:38:17.447Z,0
2018-01-13T03:39:17.465Z,0
2018-01-13T03:40:17.577Z,0
2018-01-13T03:41:17.750Z,0
2018-01-13T03:42:17.967Z,0
2018-01-13T03:43:18.111Z,0
2018-01-13T03:44:18.640Z,0
2018-01-13T03:45:18.734Z,0
2018-01-13T03:46:18.707Z,0
2018-01-13T03:47:18.647Z,0
2018-01-13T03:48:19.257Z,0
2018-01-13T03:49:19.636Z,0
2018-01-13T03:50:19.867Z,0
2018-01-13T03:51:18.981Z,0
2018-01-13T03:52:19.269Z,0
2018-01-13T03:53:19.214Z,0
2018-01-13T03:54:19.717Z,0
2018-01-13T03:55:19.942Z,0
2018-01-13T03:56:19.294Z,0
2018-01-13T03:57:19.706Z,0
2018-01-13T03:58:19.940Z,0
2018-01-13T03:59:19.914Z,0
2018-01-13T04:00:25.538Z,0
2018-01-13T04:01:25.070Z,0
2018-01-13T04:02:25.348Z,0
2018-01-13T04:03:25.162Z,0
2018-01-13T04:04:25.541Z,0
2018-01-13T04:05:25.722Z,0
2018-01-13T04:06:26.337Z,0
2018-01-13T04:07:25.267Z,0
2018-01-13T04:08:25.784Z,0
2018-01-13T04:09:25.347Z,0
2018-01-13T04:10:26.005Z,0
2018-01-13T04:11:25.663Z,0
2018-01-13T04:12:25.857Z,0
2018-01-13T04:13:25.920Z,0
2018-01-13T04:14:26.192Z,0
2018-01-13T04:15:26.526Z,0
2018-01-13T04:16:28.224Z,0
2018-01-13T04:17:27.373Z,0
2018-01-13T04:18:26.617Z,0
2018-01-13T04:19:27.164Z,0
2018-01-13T04:20:27.588Z,0
2018-01-13T04:21:26.830Z,0
2018-01-13T04:22:27.385Z,0
2018-01-13T04:23:26.925Z,0
2018-01-13T04:24:27.660Z,0
2018-01-13T04:25:27.908Z,0
2018-01-13T04:26:27.090Z,0
2018-01-13T04:27:26.990Z,0
2018-01-13T04:28:27.386Z,0
2018-01-13T04:29:27.566Z,0
2018-01-13T04:30:27.979Z,0
2018-01-13T04:31:28.476Z,0
2018-01-13T04:32:27.754Z,0
2018-01-13T04:33:27.477Z,0
2018-01-13T04:34:28.049Z,0
2018-01-13T04:35:28.595Z,0
2018-01-13T04:36:28.815Z,0
2018-01-13T04:37:28.738Z,0
2018-01-13T04:38:28.389Z,0
2018-01-13T04:39:28.628Z,0
2018-01-13T04:40:29.721Z,0
2018-01-13T04:41:29.170Z,0
2018-01-13T04:42:30.549Z,0
2018-01-13T04:43:30.379Z,0
2018-01-13T04:44:29.825Z,0
2018-01-13T04:45:29.870Z,0
2018-01-13T04:46:30.305Z,0
2018-01-13T04:47:29.346Z,0
2018-01-13T04:48:30.023Z,0
2018-01-13T04:49:29.827Z,0
2018-01-13T04:50:29.900Z,0
2018-01-13T04:51:30.265Z,0
2018-01-13T04:52:29.998Z,0
2018-01-13T04:53:30.067Z,0
2018-01-13T04:54:30.511Z,0
2018-01-13T04:55:31.179Z,0
2018-01-13T04:56:31.158Z,0
2018-01-13T04:57:31.155Z,0
2018-01-13T04:58:31.024Z,0
2018-01-13T04:59:31.193Z,0
2018-01-13T05:00:31.601Z,0
2018-01-13T05:01:31.229Z,0
2018-01-13T05:02:31.643Z,0
2018-01-13T05:03:31.932Z,0
2018-01-13T05:04:31.147Z,0
2018-01-13T05:05:32.056Z,0
2018-01-13T05:06:31.837Z,0
2018-01-13T05:07:32.374Z,0
2018-01-13T05:08:33.209Z,0
2018-01-13T05:09:32.618Z,0
2018-01-13T05:10:32.258Z,0
2018-01-13T05:11:32.624Z,0
2018-01-13T05:12:32.502Z,0
2018-01-13T05:13:33.288Z,0
2018-01-13T05:14:32.925Z,0
2018-01-13T05:15:33.258Z,0
2018-01-13T05:16:34.345Z,0
2018-01-13T05:17:32.389Z,0
2018-01-13T05:18:33.401Z,0
2018-01-13T05:19:34.299Z,0
2018-01-13T05:20:34.012Z,0
2018-01-13T05:21:34.527Z,0
2018-01-13T05:22:33.202Z,0
2018-01-13T05:23:34.011Z,0
2018-01-13T05:24:33.759Z,0
2018-01-13T05:25:33.253Z,0
2018-01-13T05:26:33.944Z,0
2018-01-13T05:27:33.029Z,0
2018-01-13T05:28:33.253Z,0
2018-01-13T05:29:34.176Z,0
2018-01-13T05:30:33.259Z,0
2018-01-13T05:31:34.498Z,0
2018-01-13T05:32:34.457Z,0
2018-01-13T05:33:34.033Z,0
2018-01-13T05:34:34.129Z,0
2018-01-13T05:35:34.429Z,0
2018-01-13T05:36:34.466Z,0
2018-01-13T05:37:35.123Z,0
2018-01-13T05:38:34.649Z,0
2018-01-13T05:39:35.169Z,0
2018-01-13T05:40:35.760Z,0
2018-01-13T05:41:35.832Z,0
2018-01-13T05:42:36.314Z,0
2018-01-13T05:43:35.647Z,0
2018-01-13T05:44:36.039Z,0
2018-01-13T05:45:35.469Z,0
2018-01-13T05:46:36.254Z,0
2018-01-13T05:47:36.436Z,0
2018-01-13T05:48:36.002Z,0
2018-01-13T05:49:36.334Z,0
2018-01-13T05:50:36.348Z,0
2018-01-13T05:51:36.071Z,0
2018-01-13T05:52:36.105Z,0
2018-01-13T05:53:36.889Z,0
2018-01-13T05:54:36.690Z,0
2018-01-13T05:55:36.655Z,0
2018-01-13T05:56:36.763Z,0
2018-01-13T05:57:37.109Z,0
2018-01-13T05:58:36.537Z,0
2018-01-13T05:59:35.915Z,0
2018-01-13T06:00:35.987Z,0
2018-01-13T06:01:36.821Z,0
2018-01-13T06:02:36.249Z,0
2018-01-13T06:03:36.630Z,0
2018-01-13T06:04:36.647Z,0
2018-01-13T06:05:37.229Z,0
2018-01-13T06:06:36.718Z,0
2018-01-13T06:07:37.201Z,0
2018-01-13T06:08:37.036Z,0
2018-01-13T06:09:36.969Z,0
2018-01-13T06:10:37.794Z,0
2018-01-13T06:11:37.515Z,0
2018-01-13T06:12:37.025Z,0
2018-01-13T06:13:37.753Z,0
2018-01-13T06:14:37.214Z,0
2018-01-13T06:15:37.926Z,0
2018-01-13T06:16:38.173Z,0
2018-01-13T06:17:38.222Z,0
2018-01-13T06:18:38.925Z,0
2018-01-13T06:19:38.827Z,0
2018-01-13T06:20:39.841Z,0
2018-01-13T06:21:38.596Z,0
2018-01-13T06:22:38.719Z,0
2018-01-13T06:23:39.724Z,0
2018-01-13T06:24:39.048Z,0
2018-01-13T06:25:40.130Z,0
2018-01-13T06:26:39.566Z,0
2018-01-13T06:27:41.261Z,0
2018-01-13T06:28:40.086Z,0
2018-01-13T06:29:41.061Z,0
2018-01-13T06:30:41.350Z,0
2018-01-13T06:31:40.744Z,0
2018-01-13T06:32:40.709Z,0
2018-01-13T06:33:41.419Z,0
2018-01-13T06:34:40.833Z,0
2018-01-13T06:35:40.660Z,0
2018-01-13T06:36:41.108Z,0
2018-01-13T06:37:41.677Z,0
2018-01-13T06:38:41.181Z,0
2018-01-13T06:39:42.384Z,0
2018-01-13T06:40:41.572Z,0
2018-01-13T06:41:41.838Z,0
2018-01-13T06:42:55.820Z,0
2018-01-13T06:43:41.807Z,0
2018-01-13T06:44:41.431Z,0
2018-01-13T06:45:41.415Z,0
2018-01-13T06:46:42.200Z,4
2018-01-13T06:47:42.207Z,0
2018-01-13T06:48:42.389Z,0
2018-01-13T06:49:42.174Z,0
2018-01-13T06:50:42.131Z,4
2018-01-13T06:51:44.430Z,4
2018-01-13T06:52:42.576Z,0
2018-01-13T06:53:42.657Z,4
2018-01-13T06:54:43.191Z,4
2018-01-13T06:55:43.312Z,4
2018-01-13T06:56:42.988Z,8
2018-01-13T06:57:42.958Z,8
2018-01-13T06:58:43.490Z,8
2018-01-13T06:59:43.802Z,8
2018-01-13T07:00:42.934Z,12
2018-01-13T07:01:43.384Z,12
2018-01-13T07:02:43.252Z,12
2018-01-13T07:03:44.118Z,16
2018-01-13T07:04:43.896Z,16
2018-01-13T07:05:44.375Z,20
2018-01-13T07:06:44.866Z,20
2018-01-13T07:07:45.032Z,20
2018-01-13T07:08:44.134Z,20
2018-01-13T07:09:45.114Z,24
2018-01-13T07:10:44.928Z,28
2018-01-13T07:11:45.121Z,32
2018-01-13T07:12:45.540Z,36
2018-01-13T07:13:45.773Z,36
2018-01-13T07:14:46.240Z,40
2018-01-13T07:15:46.014Z,44
2018-01-13T07:16:45.765Z,48
2018-01-13T07:17:45.821Z,44
2018-01-13T07:18:46.022Z,48
2018-01-13T07:19:46.270Z,52
2018-01-13T07:20:45.953Z,60
2018-01-13T07:21:46.772Z,64
2018-01-13T07:22:46.744Z,60
2018-01-13T07:23:47.376Z,68
2018-01-13T07:24:46.930Z,68
2018-01-13T07:25:46.734Z,76
2018-01-13T07:26:46.982Z,76
2018-01-13T07:27:46.961Z,80
2018-01-13T07:28:47.887Z,80
2018-01-13T07:29:46.890Z,80
2018-01-13T07:30:47.733Z,84
2018-01-13T07:31:47.191Z,92
2018-01-13T07:33:03.018Z,92
2018-01-13T07:33:48.345Z,104
2018-01-13T07:34:48.017Z,108
2018-01-13T07:35:48.422Z,108
2018-01-13T07:36:48.090Z,116
2018-01-13T07:37:48.069Z,124
2018-01-13T07:38:48.040Z,132
2018-01-13T07:39:48.230Z,132
2018-01-13T07:40:48.550Z,132
2018-01-13T07:41:48.684Z,132
2018-01-13T07:42:49.442Z,148
2018-01-13T07:43:48.942Z,160
2018-01-13T07:44:49.708Z,152
2018-01-13T07:45:49.374Z,184
2018-01-13T07:46:49.338Z,188
2018-01-13T07:47:49.882Z,216
2018-01-13T07:48:49.572Z,212
2018-01-13T07:49:49.915Z,208
2018-01-13T07:50:49.782Z,208
2018-01-13T07:51:50.049Z,236
2018-01-13T07:52:49.786Z,240
2018-01-13T07:53:50.499Z,244
2018-01-13T07:54:50.406Z,264
2018-01-13T07:55:51.074Z,260
2018-01-13T07:56:50.860Z,272
2018-01-13T07:57:50.399Z,264
2018-01-13T07:58:50.671Z,288
2018-01-13T07:59:51.151Z,300
2018-01-13T08:01:05.212Z,300
2018-01-13T08:01:51.274Z,292
2018-01-13T08:02:50.513Z,296
2018-01-13T08:03:50.909Z,312
2018-01-13T08:04:52.047Z,348
2018-01-13T08:05:51.390Z,300
2018-01-13T08:06:50.606Z,316
2018-01-13T08:07:50.782Z,308
2018-01-13T08:08:51.485Z,284
2018-01-13T08:09:50.530Z,292
2018-01-13T08:10:51.022Z,292
2018-01-13T08:11:52.432Z,312
2018-01-13T08:12:52.629Z,344
2018-01-13T08:13:52.498Z,376
2018-01-13T08:14:52.488Z,376
2018-01-13T08:15:51.670Z,444
2018-01-13T08:16:53.288Z,432
2018-01-13T08:17:52.623Z,424
2018-01-13T08:18:52.369Z,432
2018-01-13T08:19:52.540Z,432
2018-01-13T08:20:52.185Z,416
2018-01-13T08:21:50.942Z,492
2018-01-13T08:22:51.219Z,500
2018-01-13T08:23:51.223Z,452
2018-01-13T08:24:51.698Z,416
2018-01-13T08:25:51.402Z,436
2018-01-13T08:26:52.117Z,444
2018-01-13T08:27:51.855Z,484
2018-01-13T08:28:52.972Z,456
2018-01-13T08:29:52.187Z,492
2018-01-13T08:30:52.300Z,540
2018-01-13T08:31:52.117Z,536
2018-01-13T08:32:52.986Z,508
2018-01-13T08:33:54.199Z,540
2018-01-13T08:34:55.511Z,604
2018-01-13T08:35:53.730Z,556
2018-01-13T08:36:54.121Z,576
2018-01-13T08:37:54.681Z,644
2018-01-13T08:38:54.755Z,616
2018-01-13T08:39:54.674Z,556
2018-01-13T08:40:53.869Z,560
2018-01-13T08:41:54.593Z,676
2018-01-13T08:42:55.299Z,696
2018-01-13T08:43:53.593Z,664
2018-01-13T08:44:54.138Z,620
2018-01-13T08:45:53.641Z,676
2018-01-13T08:46:54.657Z,640
2018-01-13T08:47:54.831Z,636
2018-01-13T08:48:54.457Z,692
2018-01-13T08:49:53.788Z,688
2018-01-13T08:50:54.059Z,692
2018-01-13T08:51:55.584Z,604
2018-01-13T08:52:56.534Z,652
2018-01-13T08:53:54.676Z,636
2018-01-13T08:54:54.890Z,672
2018-01-13T08:55:54.116Z,704
2018-01-13T08:56:54.452Z,656
2018-01-13T08:57:56.233Z,652
2018-01-13T08:58:55.296Z,668
2018-01-13T08:59:55.603Z,660
2018-01-13T09:00:55.363Z,632
2018-01-13T09:01:55.876Z,608
2018-01-13T09:02:55.789Z,660
2018-01-13T09:03:55.929Z,636
2018-01-13T09:04:56.023Z,728
2018-01-13T09:05:56.451Z,668
2018-01-13T09:06:55.387Z,696
2018-01-13T09:07:57.436Z,732
2018-01-13T09:08:56.233Z,804
2018-01-13T09:09:56.855Z,784
2018-01-13T09:10:58.587Z,776
2018-01-13T09:11:56.515Z,756
2018-01-13T09:12:57.375Z,764
2018-01-13T09:13:56.602Z,788
2018-01-13T09:14:56.898Z,756
2018-01-13T09:15:56.664Z,768
2018-01-13T09:16:56.662Z,792
2018-01-13T09:17:57.016Z,824
2018-01-13T09:18:56.969Z,764
2018-01-13T09:19:57.189Z,784
2018-01-13T09:20:56.694Z,860
2018-01-13T09:21:57.819Z,820
2018-01-13T09:22:58.252Z,868
2018-01-13T09:23:57.964Z,864
2018-01-13T09:24:57.388Z,828
2018-01-13T09:25:57.036Z,824
2018-01-13T09:26:57.730Z,852
2018-01-13T09:27:57.691Z,860
2018-01-13T09:28:57.686Z,884
2018-01-13T09:29:58.014Z,1024
2018-01-13T09:30:57.223Z,1072
2018-01-13T09:31:57.650Z,1144
2018-01-13T09:32:57.940Z,1280
2018-01-13T09:33:57.683Z,1388
2018-01-13T09:34:57.732Z,1384
2018-01-13T09:35:57.809Z,1520
2018-01-13T09:36:57.509Z,1596
2018-01-13T09:37:58.215Z,1600
2018-01-13T09:38:57.863Z,1620
2018-01-13T09:39:58.074Z,1644
2018-01-13T09:40:57.503Z,1616
2018-01-13T09:41:58.531Z,1568
2018-01-13T09:42:57.816Z,1712
2018-01-13T09:43:58.508Z,1736
2018-01-13T09:44:58.160Z,1700
2018-01-13T09:45:58.406Z,1740
2018-01-13T09:46:58.538Z,1772
2018-01-13T09:47:58.726Z,1776
2018-01-13T09:48:59.197Z,1736
2018-01-13T09:49:58.957Z,1820
2018-01-13T09:50:59.168Z,1812
2018-01-13T09:51:58.905Z,1856
2018-01-13T09:52:59.738Z,1824
2018-01-13T09:53:59.483Z,1860
2018-01-13T09:54:59.272Z,1908
2018-01-13T09:56:00.877Z,1892
2018-01-13T09:56:59.914Z,2060
2018-01-13T09:58:00.718Z,2124
2018-01-13T09:58:59.841Z,2188
2018-01-13T10:00:00.099Z,2100
2018-01-13T10:01:00.421Z,2084
2018-01-13T10:02:00.628Z,2140
2018-01-13T10:02:59.886Z,2136
2018-01-13T10:04:00.213Z,2260
2018-01-13T10:05:00.133Z,2324
2018-01-13T10:06:00.885Z,2384
2018-01-13T10:07:00.575Z,2448
2018-01-13T10:08:00.729Z,2496
2018-01-13T10:09:00.830Z,2636
2018-01-13T10:10:01.271Z,2800
2018-01-13T10:11:00.765Z,2840
2018-01-13T10:12:02.502Z,2892
2018-01-13T10:13:02.460Z,2920
2018-01-13T10:14:01.835Z,2960
2018-01-13T10:15:01.440Z,2980
2018-01-13T10:16:01.525Z,3032
2018-01-13T10:17:00.772Z,3108
2018-01-13T10:18:01.895Z,3064
2018-01-13T10:19:01.244Z,2928
2018-01-13T10:20:00.793Z,2948
2018-01-13T10:21:01.193Z,2900
2018-01-13T10:22:00.897Z,2888
2018-01-13T10:23:01.493Z,2868
2018-01-13T10:24:01.196Z,3000
2018-01-13T10:25:01.000Z,2936
2018-01-13T10:26:01.262Z,3120
2018-01-13T10:27:01.197Z,3376
2018-01-13T10:28:00.846Z,3400
2018-01-13T10:29:02.764Z,3376
2018-01-13T10:30:01.602Z,3532
2018-01-13T10:31:02.260Z,3572
2018-01-13T10:32:02.058Z,3848
2018-01-13T10:33:03.716Z,4012
2018-01-13T10:34:02.260Z,4232
2018-01-13T10:35:01.935Z,4416
2018-01-13T10:36:03.256Z,4828
2018-01-13T10:37:03.321Z,5192
2018-01-13T10:38:02.162Z,6572
2018-01-13T10:39:02.059Z,7356
2018-01-13T10:40:01.407Z,12384
2018-01-13T10:41:01.932Z,7764
2018-01-13T10:42:01.696Z,4752
2018-01-13T10:43:02.313Z,3772
2018-01-13T10:44:02.087Z,2808
2018-01-13T10:45:02.878Z,3112
2018-01-13T10:46:02.308Z,2492
2018-01-13T10:47:02.305Z,2308
2018-01-13T10:48:02.340Z,2168
2018-01-13T10:49:02.913Z,2204
2018-01-13T10:50:02.997Z,2436
2018-01-13T10:51:03.892Z,2756
2018-01-13T10:52:04.589Z,2700
2018-01-13T10:53:03.639Z,2584
2018-01-13T10:54:02.708Z,2216
2018-01-13T10:55:02.978Z,1852
2018-01-13T10:56:03.584Z,1720
2018-01-13T10:57:03.340Z,1768
2018-01-13T10:58:03.141Z,1928
2018-01-13T10:59:03.026Z,1728
2018-01-13T11:00:18.119Z,1816
2018-01-13T11:01:03.275Z,1824
2018-01-13T11:02:03.771Z,1800
2018-01-13T11:03:03.779Z,1876
2018-01-13T11:04:04.074Z,1800
2018-01-13T11:05:04.357Z,1704
2018-01-13T11:06:04.545Z,1492
2018-01-13T11:07:03.977Z,1384
2018-01-13T11:08:04.248Z,1280
2018-01-13T11:50:50.733Z,1144
2018-01-13T11:51:01.375Z,1060
2018-01-13T11:52:38.206Z,1012
2018-01-13T11:53:01.975Z,1040
2018-01-13T11:54:01.851Z,956
2018-01-13T11:55:01.390Z,944
2018-01-13T11:56:01.442Z,956
2018-01-13T11:57:01.470Z,892
2018-01-13T11:58:01.817Z,852
2018-01-13T11:59:01.791Z,932
2018-01-13T12:01:01.250Z,872
2018-01-13T12:02:02.102Z,904
2018-01-13T12:03:01.752Z,868
2018-01-13T12:04:01.269Z,832
2018-01-13T12:05:03.450Z,824
2018-01-13T12:06:01.573Z,840
2018-01-13T12:07:02.767Z,840
2018-01-13T12:08:01.839Z,816
2018-01-13T12:09:02.390Z,832
2018-01-13T12:10:02.660Z,860
2018-01-13T12:11:02.687Z,852
2018-01-13T12:12:02.953Z,828
2018-01-13T12:13:02.804Z,812
2018-01-13T12:14:01.959Z,772
2018-01-13T12:15:02.424Z,848
2018-01-13T12:16:03.019Z,820
2018-01-13T12:17:02.979Z,824
2018-01-13T12:18:02.982Z,788
2018-01-13T12:19:04.897Z,772
2018-01-13T12:20:03.999Z,752
2018-01-13T12:21:04.046Z,732
2018-01-13T12:22:04.124Z,756
2018-01-13T12:23:04.028Z,816
2018-01-13T12:24:03.945Z,816
2018-01-13T12:25:04.244Z,852
2018-01-13T12:26:04.340Z,840
2018-01-13T12:27:04.206Z,808
2018-01-13T12:28:04.085Z,848
2018-01-13T12:29:04.207Z,868
2018-01-13T12:30:04.494Z,864
2018-01-13T12:31:04.242Z,948
2018-01-13T12:32:03.732Z,968
2018-01-13T12:33:05.715Z,904
2018-01-13T12:34:05.298Z,972
2018-01-13T12:35:05.928Z,936
2018-01-13T12:36:05.611Z,856
2018-01-13T12:37:04.793Z,796
2018-01-13T12:38:04.521Z,776
2018-01-13T12:39:04.820Z,792
2018-01-13T12:40:05.000Z,812
2018-01-13T12:41:05.178Z,764
2018-01-13T12:42:05.328Z,768
2018-01-13T12:43:05.627Z,776
2018-01-13T12:44:05.612Z,780
2018-01-13T12:45:05.444Z,796
2018-01-13T12:46:05.743Z,828
2018-01-13T12:47:06.422Z,824
2018-01-13T12:48:05.781Z,792
2018-01-13T12:49:06.135Z,764
2018-01-13T12:50:06.207Z,776
2018-01-13T12:51:06.522Z,780
2018-01-13T12:52:06.730Z,824
2018-01-13T12:53:06.561Z,840
2018-01-13T12:54:06.480Z,844
2018-01-13T12:55:06.134Z,800
2018-01-13T12:56:06.431Z,812
2018-01-13T12:57:06.866Z,796
2018-01-13T12:58:06.284Z,748
2018-01-13T12:59:07.013Z,764
2018-01-13T13:00:21.966Z,744
2018-01-13T13:01:07.335Z,708
2018-01-13T13:02:07.357Z,708
2018-01-13T13:03:07.832Z,716
2018-01-13T13:04:07.339Z,708
2018-01-13T13:05:07.729Z,748
2018-01-13T13:06:07.629Z,724
2018-01-13T13:07:07.669Z,676
2018-01-13T13:08:08.172Z,664
2018-01-13T13:09:08.423Z,680
2018-01-13T13:10:08.655Z,652
2018-01-13T13:11:08.394Z,600
2018-01-13T13:12:08.751Z,592
2018-01-13T13:13:08.632Z,600
2018-01-13T13:14:08.417Z,620
2018-01-13T13:15:08.528Z,596
2018-01-13T13:16:09.015Z,568
2018-01-13T13:17:09.003Z,560
2018-01-13T13:18:09.406Z,536
2018-01-13T13:19:09.211Z,548
2018-01-13T13:20:09.408Z,556
2018-01-13T13:21:08.637Z,564
2018-01-13T13:22:10.171Z,560
2018-01-13T13:23:10.316Z,556
2018-01-13T13:24:10.322Z,536
2018-01-13T13:25:09.525Z,532
2018-01-13T13:26:09.632Z,524
2018-01-13T13:27:09.769Z,536
2018-01-13T13:28:09.415Z,556
2018-01-13T13:29:09.644Z,576
2018-01-13T13:30:10.219Z,580
2018-01-13T13:31:09.753Z,548
2018-01-13T13:32:10.249Z,536
2018-01-13T13:33:09.876Z,552
2018-01-13T13:34:09.643Z,572
2018-01-13T13:35:11.512Z,588
2018-01-13T13:36:10.222Z,576
2018-01-13T13:37:11.664Z,580
2018-01-13T13:38:10.961Z,612
2018-01-13T13:39:10.103Z,616
2018-01-13T13:40:10.257Z,628
2018-01-13T13:41:09.419Z,656
2018-01-13T13:42:09.806Z,636
2018-01-13T13:43:09.646Z,632
2018-01-13T13:44:09.840Z,636
2018-01-13T13:45:10.035Z,652
2018-01-13T13:46:10.524Z,632
2018-01-13T13:47:10.999Z,644
2018-01-13T13:48:10.156Z,640
2018-01-13T13:49:10.660Z,632
2018-01-13T13:50:11.433Z,616
2018-01-13T13:51:11.186Z,656
2018-01-13T13:52:11.601Z,672
2018-01-13T13:53:11.357Z,664
2018-01-13T13:54:11.378Z,760
2018-01-13T13:55:12.591Z,700
2018-01-13T13:56:11.422Z,676
2018-01-13T13:57:12.142Z,644
2018-01-13T13:58:11.726Z,664
2018-01-13T13:59:11.309Z,640
2018-01-13T14:00:26.364Z,656
2018-01-13T14:01:36.633Z,656
2018-01-13T14:02:36.047Z,624
2018-01-13T14:03:36.056Z,604
2018-01-13T14:04:36.091Z,596
2018-01-13T14:05:36.346Z,592
2018-01-13T14:06:36.534Z,568
2018-01-13T14:07:37.959Z,544
2018-01-13T14:08:37.363Z,552
2018-01-13T14:09:37.583Z,536
2018-01-13T14:10:37.455Z,524
2018-01-13T14:11:37.485Z,532
2018-01-13T14:12:39.485Z,496
2018-01-13T14:13:40.889Z,484
2018-01-13T14:14:38.971Z,484
2018-01-13T14:15:39.347Z,456
2018-01-13T14:16:39.106Z,448
2018-01-13T14:17:39.015Z,440
2018-01-13T14:18:38.444Z,432
2018-01-13T14:19:39.601Z,424
2018-01-13T14:20:38.683Z,420
2018-01-13T14:21:38.448Z,408
2018-01-13T14:22:38.452Z,412
2018-01-13T14:23:39.525Z,388
2018-01-13T14:24:39.012Z,376
2018-01-13T14:25:39.168Z,372
2018-01-13T14:26:39.175Z,364
2018-01-13T14:27:39.326Z,356
2018-01-13T14:28:39.469Z,336
2018-01-13T14:29:39.051Z,332
2018-01-13T14:30:38.763Z,324
2018-01-13T14:31:39.348Z,328
2018-01-13T14:32:39.789Z,316
2018-01-13T14:33:39.835Z,300
2018-01-13T14:34:41.209Z,296
2018-01-13T14:35:39.860Z,288
2018-01-13T14:36:39.712Z,288
2018-01-13T14:37:40.622Z,284
2018-01-13T14:38:40.186Z,280
2018-01-13T14:39:39.617Z,276
2018-01-13T14:40:39.237Z,260
2018-01-13T14:41:39.990Z,256
2018-01-13T14:42:39.541Z,248
2018-01-13T14:43:39.747Z,244
2018-01-13T14:44:40.554Z,232
2018-01-13T14:45:41.242Z,220
2018-01-13T14:46:42.180Z,208
2018-01-13T14:47:41.010Z,196
2018-01-13T14:48:40.312Z,184
2018-01-13T14:49:41.660Z,184
2018-01-13T14:50:41.997Z,176
2018-01-13T14:51:43.046Z,168
2018-01-13T14:52:43.061Z,160
2018-01-13T14:53:42.904Z,152
2018-01-13T14:54:40.358Z,148
2018-01-13T14:55:41.411Z,144
2018-01-13T14:56:42.293Z,140